createdAt,value
2023-01-17T00:02:20.122Z,4.90
2023-01-17T00:05:05.648Z,4.90
2023-01-17T00:08:03.615Z,5.00
2023-01-17T00:10:31.842Z,5.00
2023-01-17T00:13:03.223Z,5.00
2023-01-17T00:15:33.302Z,5.00
2023-01-17T00:18:01.693Z,5.00
2023-01-17T00:20:49.122Z,5.00
2023-01-17T00:23:36.413Z,5.00
2023-01-17T00:26:05.395Z,5.00
2023-01-17T00:28:36.141Z,5.00
2023-01-17T00:31:04.817Z,5.00
2023-01-17T00:33:32.144Z,5.00
2023-01-17T00:35:59.940Z,5.00
2023-01-17T00:38:28.591Z,5.00
2023-01-17T00:41:01.618Z,5.10
2023-01-17T00:43:49.060Z,5.00
2023-01-17T00:46:36.423Z,5.10
2023-01-17T00:49:22.591Z,5.10
2023-01-17T00:52:08.242Z,5.10
2023-01-17T00:54:53.578Z,5.00
2023-01-17T00:57:39.324Z,4.90
2023-01-17T01:00:26.098Z,4.90
2023-01-17T01:03:12.830Z,4.80
2023-01-17T01:05:58.658Z,4.70
2023-01-17T01:08:46.597Z,4.70
2023-01-17T01:11:34.776Z,4.60
2023-01-17T01:14:20.650Z,4.60
2023-01-17T01:17:06.581Z,4.50
2023-01-17T01:19:53.772Z,4.50
2023-01-17T01:22:39.424Z,4.60
2023-01-17T01:25:25.394Z,4.50
2023-01-17T01:28:10.781Z,4.40
2023-01-17T01:30:56.313Z,4.40
2023-01-17T01:33:23.171Z,4.30
2023-01-17T01:35:56.198Z,4.30
2023-01-17T01:38:26.328Z,4.20
2023-01-17T01:40:56.212Z,4.20
2023-01-17T01:43:42.682Z,4.20
2023-01-17T01:46:13.873Z,4.30
2023-01-17T01:48:45.225Z,4.30
2023-01-17T01:51:20.555Z,4.30
2023-01-17T01:53:52.331Z,4.30
2023-01-17T01:56:23.290Z,4.30
2023-01-17T01:58:53.696Z,4.40
2023-01-17T02:01:22.239Z,4.30
2023-01-17T02:03:51.019Z,4.30
2023-01-17T02:06:30.642Z,4.30
2023-01-17T02:09:02.779Z,4.40
2023-01-17T02:11:31.810Z,4.30
2023-01-17T02:14:00.037Z,4.40
2023-01-17T02:16:44.238Z,4.40
2023-01-17T02:19:36.704Z,4.40
2023-01-17T02:22:22.516Z,4.40
2023-01-17T02:25:18.878Z,4.40
2023-01-17T02:28:04.852Z,4.40
2023-01-17T02:30:36.858Z,4.30
2023-01-17T02:33:19.080Z,4.40
2023-01-17T02:35:55.625Z,4.40
2023-01-17T02:38:37.959Z,4.40
2023-01-17T02:41:10.388Z,4.30
2023-01-17T02:43:39.817Z,4.40
2023-01-17T02:46:09.996Z,4.40
2023-01-17T02:48:39.714Z,4.40
2023-01-17T02:51:41.041Z,4.30
2023-01-17T02:54:29.410Z,4.30
2023-01-17T02:57:12.578Z,4.30
2023-01-17T02:59:47.468Z,4.30
2023-01-17T03:02:28.624Z,4.30
2023-01-17T03:05:03.040Z,4.30
2023-01-17T03:07:32.628Z,4.30
2023-01-17T03:10:05.360Z,4.30
2023-01-17T03:12:35.864Z,4.30
2023-01-17T03:15:04.426Z,4.30
2023-01-17T03:17:35.077Z,4.30
2023-01-17T03:20:03.700Z,4.30
2023-01-17T03:22:31.808Z,4.30
2023-01-17T03:24:59.962Z,4.30
2023-01-17T03:27:27.992Z,4.30
2023-01-17T03:29:56.005Z,4.20
2023-01-17T03:32:24.227Z,4.20
2023-01-17T03:34:56.007Z,4.20
2023-01-17T03:37:24.249Z,4.20
2023-01-17T03:39:52.261Z,4.20
2023-01-17T03:42:20.246Z,4.20
2023-01-17T03:44:48.499Z,4.20
2023-01-17T03:47:16.473Z,4.10
2023-01-17T03:49:44.529Z,4.10
2023-01-17T03:52:14.432Z,4.10
2023-01-17T03:54:42.485Z,4.10
2023-01-17T03:57:10.496Z,4.00
2023-01-17T03:59:38.792Z,4.00
2023-01-17T04:02:06.904Z,4.00
2023-01-17T04:04:35.045Z,4.10
2023-01-17T04:07:03.226Z,4.00
2023-01-17T04:09:34.477Z,4.00
2023-01-17T04:12:02.935Z,4.00
2023-01-17T04:14:31.541Z,4.00
2023-01-17T04:16:59.913Z,4.10
2023-01-17T04:19:28.259Z,4.00
2023-01-17T04:21:56.349Z,4.00
2023-01-17T04:24:24.670Z,4.00
2023-01-17T04:26:54.157Z,4.00
2023-01-17T04:29:22.551Z,4.00
2023-01-17T04:31:50.665Z,4.00
2023-01-17T04:34:18.765Z,4.00
2023-01-17T04:36:46.903Z,4.00
2023-01-17T04:39:14.975Z,4.00
2023-01-17T04:41:43.851Z,4.00
2023-01-17T04:44:13.346Z,4.00
2023-01-17T04:46:41.870Z,3.90
2023-01-17T04:49:09.873Z,3.90
2023-01-17T04:51:37.995Z,4.00
2023-01-17T04:54:06.100Z,4.00
2023-01-17T04:56:34.061Z,4.00
2023-01-17T04:59:02.978Z,3.90
2023-01-17T05:01:32.682Z,3.90
2023-01-17T05:04:00.791Z,3.90
2023-01-17T05:06:28.867Z,4.00
2023-01-17T05:08:57.226Z,4.00
2023-01-17T05:11:25.337Z,3.90
2023-01-17T05:13:53.529Z,4.00
2023-01-17T05:16:22.014Z,4.00
2023-01-17T05:18:54.532Z,4.00
2023-01-17T05:21:23.373Z,4.00
2023-01-17T05:23:52.103Z,4.00
2023-01-17T05:26:38.350Z,4.00
2023-01-17T05:29:06.861Z,4.00
2023-01-17T05:31:35.214Z,4.00
2023-01-17T05:34:08.081Z,4.00
2023-01-17T05:36:36.260Z,4.10
2023-01-17T05:39:05.221Z,4.00
2023-01-17T05:41:33.433Z,4.10
2023-01-17T05:44:01.834Z,4.00
2023-01-17T05:46:30.668Z,3.90
2023-01-17T05:48:59.193Z,3.70
2023-01-17T05:51:29.327Z,3.60
2023-01-17T05:53:57.354Z,3.60
2023-01-17T05:56:25.429Z,3.60
2023-01-17T05:58:54.021Z,3.50
2023-01-17T06:01:22.395Z,3.50
2023-01-17T06:03:50.901Z,3.40
2023-01-17T06:06:19.961Z,3.40
2023-01-17T06:08:49.732Z,3.30
2023-01-17T06:11:19.465Z,3.30
2023-01-17T06:13:50.901Z,3.30
2023-01-17T06:16:19.428Z,3.20
2023-01-17T06:18:47.458Z,3.20
2023-01-17T06:21:15.438Z,3.20
2023-01-17T06:23:43.844Z,3.20
2023-01-17T06:26:13.319Z,3.20
2023-01-17T06:28:41.280Z,3.20
2023-01-17T06:31:10.085Z,3.20
2023-01-17T06:33:38.097Z,3.20
2023-01-17T06:36:07.202Z,3.10
2023-01-17T06:38:35.457Z,3.20
2023-01-17T06:41:05.685Z,3.20
2023-01-17T06:43:35.092Z,3.10
2023-01-17T06:46:03.304Z,3.00
2023-01-17T06:48:31.326Z,3.10
2023-01-17T06:50:59.383Z,3.10
2023-01-17T06:53:27.614Z,3.20
2023-01-17T06:55:57.555Z,3.20
2023-01-17T06:58:25.803Z,3.20
2023-01-17T07:00:55.729Z,3.20
2023-01-17T07:03:25.750Z,3.20
2023-01-17T07:05:54.515Z,3.20
2023-01-17T07:08:22.625Z,3.30
2023-01-17T07:10:50.653Z,3.30
2023-01-17T07:13:18.711Z,3.30
2023-01-17T07:15:47.233Z,3.30
2023-01-17T07:18:20.515Z,3.30
2023-01-17T07:20:49.143Z,3.30
2023-01-17T07:23:17.922Z,3.20
2023-01-17T07:25:51.530Z,3.30
2023-01-17T07:28:19.772Z,3.30
2023-01-17T07:30:47.936Z,3.20
2023-01-17T07:33:18.155Z,3.20
2023-01-17T07:35:46.688Z,3.20
2023-01-17T07:38:16.537Z,3.20
2023-01-17T07:40:44.714Z,3.10
2023-01-17T07:43:14.487Z,3.10
2023-01-17T07:45:43.832Z,3.00
2023-01-17T07:48:12.812Z,3.00
2023-01-17T07:50:42.203Z,2.90
2023-01-17T07:53:10.942Z,2.90
2023-01-17T07:55:39.281Z,2.90
2023-01-17T07:58:07.311Z,2.90
2023-01-17T08:00:35.332Z,2.90
2023-01-17T08:03:03.588Z,2.80
2023-01-17T08:05:31.846Z,2.90
2023-01-17T08:08:01.363Z,2.80
2023-01-17T08:10:29.683Z,2.80
2023-01-17T08:12:57.703Z,2.70
2023-01-17T08:15:26.615Z,2.70
2023-01-17T08:17:54.749Z,2.70
2023-01-17T08:20:23.367Z,2.70
2023-01-17T08:22:54.851Z,2.70
2023-01-17T08:25:25.473Z,2.60
2023-01-17T08:27:58.254Z,2.60
2023-01-17T08:30:27.294Z,2.60
2023-01-17T08:32:55.763Z,2.60
2023-01-17T08:35:24.208Z,2.60
2023-01-17T08:37:56.348Z,2.50
2023-01-17T08:40:25.997Z,2.60
2023-01-17T08:42:57.773Z,2.60
2023-01-17T08:45:26.327Z,2.50
2023-01-17T08:47:54.980Z,2.60
2023-01-17T08:50:24.869Z,2.60
2023-01-17T08:53:00.956Z,2.60
2023-01-17T08:55:30.759Z,2.60
2023-01-17T08:57:58.894Z,2.60
2023-01-17T09:00:28.453Z,2.60
2023-01-17T09:02:56.498Z,2.60
2023-01-17T09:05:24.668Z,2.70
2023-01-17T09:07:52.780Z,2.70
2023-01-17T09:10:20.796Z,2.60
2023-01-17T09:12:50.554Z,2.70
2023-01-17T09:15:20.203Z,2.70
2023-01-17T09:17:48.527Z,2.80
2023-01-17T09:20:16.737Z,2.80
2023-01-17T09:22:46.117Z,2.80
2023-01-17T09:25:14.404Z,2.80
2023-01-17T09:27:46.974Z,2.80
2023-01-17T09:30:17.269Z,2.90
2023-01-17T09:32:45.335Z,2.90
2023-01-17T09:35:13.755Z,2.90
2023-01-17T09:37:41.741Z,2.90
2023-01-17T09:40:16.151Z,2.90
2023-01-17T09:42:45.015Z,3.00
2023-01-17T09:45:22.048Z,3.00
2023-01-17T09:47:52.232Z,3.00
2023-01-17T09:50:28.737Z,3.10
2023-01-17T09:53:02.833Z,3.10
2023-01-17T09:55:38.119Z,3.10
2023-01-17T09:58:11.742Z,3.10
2023-01-17T10:00:58.896Z,3.20
2023-01-17T10:03:41.940Z,3.20
2023-01-17T10:06:20.181Z,3.20
2023-01-17T10:09:09.202Z,3.30
2023-01-17T10:11:50.411Z,3.30
2023-01-17T10:14:34.216Z,3.30
2023-01-17T10:17:10.993Z,3.30
2023-01-17T10:19:56.112Z,3.40
2023-01-17T10:22:54.532Z,3.40
2023-01-17T10:25:43.054Z,3.50
2023-01-17T10:28:16.976Z,3.50
2023-01-17T10:31:17.684Z,3.60
2023-01-17T10:33:52.456Z,3.60
2023-01-17T10:36:22.740Z,3.60
2023-01-17T10:38:54.153Z,3.70
2023-01-17T10:41:27.303Z,3.70
2023-01-17T10:44:03.326Z,3.70
2023-01-17T10:46:37.767Z,3.80
2023-01-17T10:49:15.020Z,3.80
2023-01-17T10:57:23.831Z,3.80
2023-01-17T10:59:52.594Z,3.90
2023-01-17T11:02:25.529Z,3.90
2023-01-17T11:04:57.175Z,3.90
2023-01-17T11:07:26.886Z,3.90
2023-01-17T11:12:41.591Z,4.00
2023-01-17T11:15:25.938Z,4.00
2023-01-17T11:18:04.310Z,4.00
2023-01-17T11:20:37.420Z,4.10
2023-01-17T11:26:03.619Z,4.20
2023-01-17T11:28:33.056Z,4.30
2023-01-17T11:31:03.612Z,4.40
2023-01-17T11:33:53.776Z,4.40
2023-01-17T11:36:27.313Z,4.40
2023-01-17T11:38:58.055Z,4.40
2023-01-17T11:41:29.097Z,4.50
2023-01-17T11:43:59.970Z,4.60
2023-01-17T11:46:29.669Z,4.60
2023-01-17T11:48:59.946Z,4.60
2023-01-17T11:51:32.534Z,4.60
2023-01-17T11:54:14.801Z,4.70
2023-01-17T11:56:46.108Z,4.80
2023-01-17T11:59:31.537Z,4.80
2023-01-17T12:02:46.802Z,4.80
2023-01-17T12:05:24.965Z,4.90
2023-01-17T12:08:00.431Z,4.90
2023-01-17T12:10:32.363Z,5.00
2023-01-17T12:13:26.470Z,5.10
2023-01-17T12:16:22.507Z,5.10
2023-01-17T12:18:57.515Z,5.20
2023-01-17T12:21:37.095Z,5.20
2023-01-17T12:24:36.771Z,5.20
2023-01-17T12:27:13.365Z,5.20
2023-01-17T12:29:50.802Z,5.10
2023-01-17T12:32:45.602Z,5.20
2023-01-17T12:35:19.725Z,5.30
2023-01-17T12:38:03.773Z,5.20
2023-01-17T12:40:37.914Z,5.10
2023-01-17T12:43:14.878Z,5.00
2023-01-17T12:45:45.756Z,4.90
2023-01-17T12:48:17.532Z,4.90
2023-01-17T12:50:53.130Z,4.90
2023-01-17T12:53:28.627Z,4.80
2023-01-17T12:56:02.762Z,4.80
2023-01-17T12:58:39.412Z,4.80
2023-01-17T13:01:15.771Z,4.80
2023-01-17T13:03:56.099Z,4.70
2023-01-17T13:06:31.849Z,4.70
2023-01-17T13:09:02.660Z,4.70
2023-01-17T13:11:39.053Z,4.70
2023-01-17T13:14:10.715Z,4.70
2023-01-17T13:16:44.282Z,4.80
2023-01-17T13:19:21.356Z,4.70
2023-01-17T13:21:51.198Z,4.80
2023-01-17T13:24:41.032Z,4.90
2023-01-17T13:27:39.819Z,5.00
2023-01-17T13:30:35.433Z,5.00
2023-01-17T13:33:21.303Z,5.10
2023-01-17T13:36:00.562Z,5.10
2023-01-17T13:38:54.963Z,5.10
2023-01-17T13:41:43.395Z,5.10
2023-01-17T13:44:24.495Z,5.10
2023-01-17T13:47:01.706Z,5.10
2023-01-17T13:49:48.977Z,5.10
2023-01-17T13:52:35.697Z,5.20
2023-01-17T13:55:05.108Z,5.20
2023-01-17T13:57:42.044Z,5.20
2023-01-17T14:00:43.926Z,5.30
2023-01-17T14:03:13.297Z,5.30
2023-01-17T14:05:57.815Z,5.20
2023-01-17T14:08:27.226Z,5.20
2023-01-17T14:11:05.224Z,5.20
2023-01-17T14:13:35.704Z,5.10
2023-01-17T14:16:04.650Z,5.10
2023-01-17T14:18:39.828Z,5.10
2023-01-17T14:21:12.247Z,5.10
2023-01-17T14:24:00.738Z,5.20
2023-01-17T14:26:47.335Z,5.20
2023-01-17T14:29:52.252Z,5.20
2023-01-17T14:32:22.792Z,5.20
2023-01-17T14:34:53.920Z,5.20
2023-01-17T14:37:31.083Z,5.10
2023-01-17T14:39:59.734Z,5.10
2023-01-17T14:42:30.220Z,5.00
2023-01-17T14:45:02.103Z,5.00
2023-01-17T14:47:33.082Z,4.90
2023-01-17T14:50:19.934Z,4.90
2023-01-17T14:52:47.923Z,4.90
2023-01-17T14:55:18.585Z,4.80
2023-01-17T14:57:54.842Z,4.70
2023-01-17T15:00:25.207Z,4.70
2023-01-17T15:02:55.066Z,4.70
2023-01-17T15:05:26.758Z,4.60
2023-01-17T15:07:56.492Z,4.60
2023-01-17T15:10:28.444Z,4.50
2023-01-17T15:12:57.613Z,4.40
2023-01-17T15:15:35.217Z,4.40
2023-01-17T15:18:17.993Z,4.40
2023-01-17T15:20:53.234Z,4.40
2023-01-17T15:23:24.232Z,4.30
2023-01-17T15:25:53.896Z,4.30
2023-01-17T15:28:21.933Z,4.30
2023-01-17T15:31:10.160Z,4.20
2023-01-17T15:33:40.724Z,4.10
2023-01-17T15:36:15.262Z,4.00
2023-01-17T15:38:52.388Z,4.00
2023-01-17T15:41:24.081Z,4.00
2023-01-17T15:43:57.394Z,4.00
2023-01-17T15:46:30.379Z,3.90
2023-01-17T15:49:23.188Z,3.90
2023-01-17T15:51:54.927Z,3.80
2023-01-17T15:54:41.444Z,3.80
2023-01-17T15:57:27.065Z,3.70
2023-01-17T16:00:05.766Z,3.60
2023-01-17T16:02:37.451Z,3.60
2023-01-17T16:05:41.816Z,3.70
2023-01-17T16:08:28.151Z,3.60
2023-01-17T16:10:59.133Z,3.60
2023-01-17T16:13:27.093Z,3.50
2023-01-17T16:15:55.173Z,3.40
2023-01-17T16:18:25.575Z,3.40
2023-01-17T16:21:00.725Z,3.40
2023-01-17T16:23:30.042Z,3.30
2023-01-17T16:25:58.020Z,3.30
2023-01-17T16:28:26.134Z,3.30
2023-01-17T16:30:54.532Z,3.20
2023-01-17T16:33:22.535Z,3.10
2023-01-17T16:35:51.239Z,3.10
2023-01-17T16:38:19.749Z,3.10
2023-01-17T16:40:49.521Z,3.10
2023-01-17T16:43:19.039Z,3.00
2023-01-17T16:45:48.228Z,3.00
2023-01-17T16:48:19.177Z,3.00
2023-01-17T16:50:50.746Z,2.90
2023-01-17T16:53:24.294Z,2.90
2023-01-17T16:55:56.526Z,2.80
2023-01-17T16:58:24.916Z,2.80
2023-01-17T17:00:55.191Z,2.80
2023-01-17T17:03:23.372Z,2.80
2023-01-17T17:05:56.954Z,2.80
2023-01-17T17:08:25.320Z,2.70
2023-01-17T17:10:54.644Z,2.60
2023-01-17T17:13:22.644Z,2.60
2023-01-17T17:15:50.930Z,2.60
2023-01-17T17:18:19.400Z,2.60
2023-01-17T17:20:49.471Z,2.50
2023-01-17T17:23:17.655Z,2.50
2023-01-17T17:25:45.615Z,2.50
2023-01-17T17:28:15.337Z,2.50
2023-01-17T17:30:43.385Z,2.40
2023-01-17T17:33:12.401Z,2.40
2023-01-17T17:35:40.375Z,2.30
2023-01-17T17:38:08.436Z,2.30
2023-01-17T17:40:36.970Z,2.20
2023-01-17T17:43:04.927Z,2.20
2023-01-17T17:45:34.328Z,2.10
2023-01-17T17:48:02.289Z,2.10
2023-01-17T17:50:30.264Z,2.10
2023-01-17T17:52:58.332Z,2.00
2023-01-17T17:55:26.290Z,2.00
2023-01-17T17:57:54.545Z,2.00
2023-01-17T18:00:23.191Z,2.00
2023-01-17T18:02:52.504Z,2.00
2023-01-17T18:05:20.452Z,2.00
2023-01-17T18:07:50.910Z,2.00
2023-01-17T18:10:19.182Z,1.90
2023-01-17T18:12:47.135Z,1.90
2023-01-17T18:15:15.353Z,1.90
2023-01-17T18:17:43.311Z,1.90
2023-01-17T18:20:15.063Z,1.90
2023-01-17T18:23:27.034Z,1.80
2023-01-17T18:25:55.121Z,1.80
2023-01-17T18:28:23.109Z,1.70
2023-01-17T18:30:51.145Z,1.70
2023-01-17T18:33:19.119Z,1.70
2023-01-17T18:35:55.632Z,1.70
2023-01-17T18:38:28.752Z,1.70
2023-01-17T18:40:56.759Z,1.70
2023-01-17T18:43:27.427Z,1.60
2023-01-17T18:45:55.384Z,1.70
2023-01-17T18:48:35.869Z,1.60
2023-01-17T18:51:07.344Z,1.60
2023-01-17T18:53:37.650Z,1.60
2023-01-17T18:56:07.263Z,1.60
2023-01-17T18:58:37.809Z,1.60
2023-01-17T19:01:10.955Z,1.60
2023-01-17T19:03:40.177Z,1.60
2023-01-17T19:06:12.755Z,1.70
2023-01-17T19:08:40.691Z,1.70
2023-01-17T19:11:09.420Z,1.60
2023-01-17T19:13:38.987Z,1.60
2023-01-17T19:16:10.423Z,1.50
2023-01-17T19:18:38.469Z,1.50
2023-01-17T19:21:07.884Z,1.40
2023-01-17T19:23:38.637Z,1.40
2023-01-17T19:26:09.268Z,1.40
2023-01-17T19:28:39.065Z,1.40
2023-01-17T19:31:10.142Z,1.40
2023-01-17T19:33:40.978Z,1.40
2023-01-17T19:36:11.704Z,1.40
2023-01-17T19:38:49.407Z,1.40
2023-01-17T19:41:26.493Z,1.40
2023-01-17T19:43:59.390Z,1.40
2023-01-17T19:46:27.870Z,1.40
2023-01-17T19:48:57.206Z,1.50
2023-01-17T19:51:26.742Z,1.40
2023-01-17T19:53:56.510Z,1.40
2023-01-17T19:56:26.017Z,1.40
2023-01-17T19:58:54.627Z,1.40
2023-01-17T20:01:27.953Z,1.40
2023-01-17T20:03:57.957Z,1.30
2023-01-17T20:06:29.208Z,1.30
2023-01-17T20:08:59.291Z,1.40
2023-01-17T20:11:28.616Z,1.40
2023-01-17T20:13:58.084Z,1.40
2023-01-17T20:16:28.164Z,1.40
2023-01-17T20:18:56.164Z,1.40
2023-01-17T20:21:25.957Z,1.40
2023-01-17T20:23:55.326Z,1.40
2023-01-17T20:26:29.607Z,1.40
2023-01-17T20:28:57.871Z,1.40
2023-01-17T20:31:26.840Z,1.30
2023-01-17T20:33:56.708Z,1.40
2023-01-17T20:36:26.577Z,1.30
2023-01-17T20:38:54.616Z,1.30
2023-01-17T20:41:25.401Z,1.30
2023-01-17T20:43:55.522Z,1.30
2023-01-17T20:46:25.575Z,1.30
2023-01-17T20:48:55.973Z,1.30
2023-01-17T20:51:26.141Z,1.30
2023-01-17T20:53:56.430Z,1.30
2023-01-17T20:56:26.729Z,1.30
2023-01-17T20:58:56.057Z,1.30
2023-01-17T21:01:24.489Z,1.30
2023-01-17T21:03:53.910Z,1.30
2023-01-17T21:06:24.198Z,1.40
2023-01-17T21:08:52.877Z,1.40
2023-01-17T21:11:23.179Z,1.40
2023-01-17T21:13:52.808Z,1.40
2023-01-17T21:16:22.822Z,1.50
2023-01-17T21:18:51.741Z,1.50
2023-01-17T21:21:21.939Z,1.50
2023-01-17T21:23:51.485Z,1.50
2023-01-17T21:26:21.888Z,1.50
2023-01-17T21:28:52.509Z,1.50
2023-01-17T21:31:23.910Z,1.40
2023-01-17T21:33:53.538Z,1.40
2023-01-17T21:36:23.806Z,1.40
2023-01-17T21:38:53.305Z,1.40
2023-01-17T21:41:22.069Z,1.40
2023-01-17T21:43:54.064Z,1.30
2023-01-17T21:46:23.446Z,1.30
2023-01-17T21:48:51.453Z,1.20
2023-01-17T21:51:22.050Z,1.20
2023-01-17T21:53:50.015Z,1.20
2023-01-17T21:56:35.649Z,1.20
2023-01-17T21:59:03.580Z,1.10
2023-01-17T22:01:34.266Z,1.10
2023-01-17T22:04:03.964Z,1.00
2023-01-17T22:06:34.377Z,1.10
2023-01-17T22:09:02.416Z,1.10
2023-01-17T22:11:31.138Z,1.10
2023-01-17T22:13:59.529Z,1.10
2023-01-17T22:16:27.495Z,1.10
2023-01-17T22:18:57.065Z,1.10
2023-01-17T22:21:28.036Z,1.00
2023-01-17T22:23:58.364Z,1.00
2023-01-17T22:26:28.202Z,1.00
2023-01-17T22:28:56.444Z,1.00
2023-01-17T22:31:26.217Z,0.90
2023-01-17T22:33:57.088Z,0.90
2023-01-17T22:36:25.939Z,0.80
2023-01-17T22:38:54.151Z,0.80
2023-01-17T22:41:23.828Z,0.80
2023-01-17T22:43:53.685Z,0.80
2023-01-17T22:46:23.191Z,0.70
2023-01-17T22:48:52.122Z,0.70
2023-01-17T22:51:23.398Z,0.70
2023-01-17T22:53:53.149Z,0.70
2023-01-17T22:56:22.922Z,0.70
2023-01-17T22:58:51.514Z,0.70
2023-01-17T23:01:20.962Z,0.70
2023-01-17T23:03:53.307Z,0.70
2023-01-17T23:06:24.107Z,0.70
2023-01-17T23:08:54.326Z,0.70
2023-01-17T23:11:42.340Z,0.70
2023-01-17T23:14:16.865Z,0.60
2023-01-17T23:17:04.345Z,0.60
2023-01-17T23:19:35.852Z,0.60
2023-01-17T23:22:20.023Z,0.60
2023-01-17T23:24:51.397Z,0.60
2023-01-17T23:27:39.600Z,0.60
2023-01-17T23:30:10.829Z,0.60
2023-01-17T23:32:39.152Z,0.60
2023-01-17T23:35:07.761Z,0.50
2023-01-17T23:37:54.430Z,0.40
2023-01-17T23:40:22.660Z,0.50
2023-01-17T23:43:08.651Z,0.50
2023-01-17T23:45:36.767Z,0.50
2023-01-17T23:48:09.368Z,0.60
2023-01-17T23:50:38.072Z,0.50
2023-01-17T23:53:08.030Z,0.50
2023-01-17T23:55:37.311Z,0.40
2023-01-17T23:58:05.584Z,0.40
